sensor_id;sensor_type;location;lat;lon;timestamp;pressure;altitude;pressure_sealevel;temperature;humidity
29467;BME280;60968;37.490;-122.288;2023-03-03T00:02:03;99081.59;;;12.40;54.51
29467;BME280;60968;37.490;-122.288;2023-03-03T00:05:05;99072.19;;;12.31;53.54
29467;BME280;60968;37.490;-122.288;2023-03-03T00:08:06;99078.56;;;12.16;54.59
29467;BME280;60968;37.490;-122.288;2023-03-03T00:11:08;99072.75;;;12.02;55.29
29467;BME280;60968;37.490;-122.288;2023-03-03T00:14:21;99078.16;;;11.90;56.49
29467;BME280;60968;37.490;-122.288;2023-03-03T00:17:28;99071.25;;;11.89;58.77
29467;BME280;60968;37.490;-122.288;2023-03-03T00:20:35;99066.34;;;11.72;58.26
29467;BME280;60968;37.490;-122.288;2023-03-03T00:23:39;99065.16;;;11.38;61.09
29467;BME280;60968;37.490;-122.288;2023-03-03T00:26:44;99077.63;;;11.19;62.86
29467;BME280;60968;37.490;-122.288;2023-03-03T00:29:52;99070.13;;;10.99;62.91
29467;BME280;60968;37.490;-122.288;2023-03-03T00:32:54;99079.06;;;10.81;64.23
29467;BME280;60968;37.490;-122.288;2023-03-03T00:35:59;99073.25;;;10.62;65.13
29467;BME280;60968;37.490;-122.288;2023-03-03T00:39:34;99083.84;;;10.50;68.11
29467;BME280;60968;37.490;-122.288;2023-03-03T00:42:35;99079.78;;;10.24;68.81
29467;BME280;60968;37.490;-122.288;2023-03-03T00:45:47;99080.00;;;10.02;68.92
29467;BME280;60968;37.490;-122.288;2023-03-03T00:48:50;99082.75;;;9.87;69.67
29467;BME280;60968;37.490;-122.288;2023-03-03T00:51:52;99080.28;;;9.74;69.66
29467;BME280;60968;37.490;-122.288;2023-03-03T00:54:54;99082.94;;;9.68;69.03
29467;BME280;60968;37.490;-122.288;2023-03-03T00:57:55;99075.34;;;9.43;70.04
29467;BME280;60968;37.490;-122.288;2023-03-03T01:00:56;99074.66;;;9.24;72.76
29467;BME280;60968;37.490;-122.288;2023-03-03T01:03:57;99069.53;;;9.14;74.70
29467;BME280;60968;37.490;-122.288;2023-03-03T01:06:57;99076.41;;;9.21;74.11
29467;BME280;60968;37.490;-122.288;2023-03-03T01:09:58;99079.97;;;9.07;75.29
29467;BME280;60968;37.490;-122.288;2023-03-03T01:13:03;99067.91;;;8.97;75.32
29467;BME280;60968;37.490;-122.288;2023-03-03T01:16:06;99073.13;;;8.96;75.95
29467;BME280;60968;37.490;-122.288;2023-03-03T01:19:07;99062.75;;;8.92;76.07
29467;BME280;60968;37.490;-122.288;2023-03-03T01:22:08;99078.41;;;8.83;76.30
29467;BME280;60968;37.490;-122.288;2023-03-03T01:25:09;99080.97;;;8.88;77.37
29467;BME280;60968;37.490;-122.288;2023-03-03T01:28:11;99087.91;;;8.89;77.47
29467;BME280;60968;37.490;-122.288;2023-03-03T01:31:12;99092.38;;;8.62;76.93
29467;BME280;60968;37.490;-122.288;2023-03-03T01:34:13;99096.75;;;8.52;78.21
29467;BME280;60968;37.490;-122.288;2023-03-03T01:37:14;99112.34;;;8.40;79.64
29467;BME280;60968;37.490;-122.288;2023-03-03T01:40:23;99114.13;;;8.26;80.73
29467;BME280;60968;37.490;-122.288;2023-03-03T01:43:32;99121.91;;;8.27;81.23
29467;BME280;60968;37.490;-122.288;2023-03-03T01:47:02;99124.53;;;8.15;82.43
29467;BME280;60968;37.490;-122.288;2023-03-03T01:50:13;99124.53;;;8.08;82.74
29467;BME280;60968;37.490;-122.288;2023-03-03T01:53:37;99122.81;;;8.00;83.97
29467;BME280;60968;37.490;-122.288;2023-03-03T01:56:40;99127.19;;;7.75;85.19
29467;BME280;60968;37.490;-122.288;2023-03-03T01:59:46;99120.28;;;7.61;85.10
29467;BME280;60968;37.490;-122.288;2023-03-03T02:02:50;99122.00;;;7.56;86.30
29467;BME280;60968;37.490;-122.288;2023-03-03T02:05:55;99130.66;;;7.55;86.21
29467;BME280;60968;37.490;-122.288;2023-03-03T02:09:10;99161.78;;;7.67;85.37
29467;BME280;60968;37.490;-122.288;2023-03-03T02:12:16;99164.38;;;7.52;85.03
29467;BME280;60968;37.490;-122.288;2023-03-03T02:15:29;99185.09;;;7.32;84.60
29467;BME280;60968;37.490;-122.288;2023-03-03T02:18:31;99185.94;;;7.29;87.81
29467;BME280;60968;37.490;-122.288;2023-03-03T02:21:32;99180.72;;;7.18;93.41
29467;BME280;60968;37.490;-122.288;2023-03-03T02:24:55;99189.34;;;7.02;99.15
29467;BME280;60968;37.490;-122.288;2023-03-03T02:27:57;99189.34;;;7.07;99.35
29467;BME280;60968;37.490;-122.288;2023-03-03T02:30:59;99192.78;;;7.09;100.00
29467;BME280;60968;37.490;-122.288;2023-03-03T02:34:00;99185.88;;;7.01;100.00
29467;BME280;60968;37.490;-122.288;2023-03-03T02:37:02;99199.72;;;7.02;100.00
29467;BME280;60968;37.490;-122.288;2023-03-03T02:40:04;99199.72;;;7.03;100.00
29467;BME280;60968;37.490;-122.288;2023-03-03T02:43:08;99208.31;;;7.01;100.00
29467;BME280;60968;37.490;-122.288;2023-03-03T02:46:10;99219.50;;;6.89;100.00
29467;BME280;60968;37.490;-122.288;2023-03-03T02:49:14;99218.63;;;6.87;100.00
29467;BME280;60968;37.490;-122.288;2023-03-03T02:52:15;99234.16;;;6.81;100.00
29467;BME280;60968;37.490;-122.288;2023-03-03T02:55:19;99236.75;;;6.81;100.00
29467;BME280;60968;37.490;-122.288;2023-03-03T02:58:20;99237.59;;;6.78;100.00
29467;BME280;60968;37.490;-122.288;2023-03-03T03:01:22;99249.63;;;6.67;100.00
29467;BME280;60968;37.490;-122.288;2023-03-03T03:04:25;99261.66;;;6.60;100.00
29467;BME280;60968;37.490;-122.288;2023-03-03T03:07:26;99248.69;;;6.56;100.00
29467;BME280;60968;37.490;-122.288;2023-03-03T03:10:26;99248.66;;;6.52;100.00
29467;BME280;60968;37.490;-122.288;2023-03-03T03:13:27;99233.09;;;6.45;100.00
29467;BME280;60968;37.490;-122.288;2023-03-03T03:16:29;99213.28;;;6.48;100.00
29467;BME280;60968;37.490;-122.288;2023-03-03T03:19:30;99204.69;;;6.54;100.00
29467;BME280;60968;37.490;-122.288;2023-03-03T03:22:31;99192.59;;;6.56;100.00
29467;BME280;60968;37.490;-122.288;2023-03-03T03:25:32;99180.47;;;6.44;100.00
29467;BME280;60968;37.490;-122.288;2023-03-03T03:28:34;99183.91;;;6.40;100.00
29467;BME280;60968;37.490;-122.288;2023-03-03T03:31:35;99181.25;;;6.31;100.00
29467;BME280;60968;37.490;-122.288;2023-03-03T03:34:36;99172.56;;;6.24;100.00
29467;BME280;60968;37.490;-122.288;2023-03-03T03:37:37;99180.31;;;6.15;100.00
29467;BME280;60968;37.490;-122.288;2023-03-03T03:40:38;99185.47;;;6.12;100.00
29467;BME280;60968;37.490;-122.288;2023-03-03T03:43:40;99186.31;;;6.15;100.00
29467;BME280;60968;37.490;-122.288;2023-03-03T03:46:41;99196.69;;;6.17;100.00
29467;BME280;60968;37.490;-122.288;2023-03-03T03:49:42;99189.81;;;6.17;100.00
29467;BME280;60968;37.490;-122.288;2023-03-03T03:52:43;99197.59;;;6.22;100.00
29467;BME280;60968;37.490;-122.288;2023-03-03T03:55:44;99188.91;;;6.12;100.00
29467;BME280;60968;37.490;-122.288;2023-03-03T03:58:45;99188.91;;;6.15;100.00
29467;BME280;60968;37.490;-122.288;2023-03-03T04:01:46;99201.03;;;6.21;100.00
29467;BME280;60968;37.490;-122.288;2023-03-03T04:04:47;99188.16;;;6.27;100.00
29467;BME280;60968;37.490;-122.288;2023-03-03T04:07:48;99176.88;;;6.22;100.00
29467;BME280;60968;37.490;-122.288;2023-03-03T04:10:49;99184.63;;;6.19;100.00
29467;BME280;60968;37.490;-122.288;2023-03-03T04:13:50;99173.38;;;6.12;100.00
29467;BME280;60968;37.490;-122.288;2023-03-03T04:16:51;99181.16;;;6.14;100.00
29467;BME280;60968;37.490;-122.288;2023-03-03T04:19:54;99183.72;;;6.14;100.00
29467;BME280;60968;37.490;-122.288;2023-03-03T04:22:55;99188.91;;;6.11;100.00
29467;BME280;60968;37.490;-122.288;2023-03-03T04:25:55;99199.22;;;6.06;100.00
29467;BME280;60968;37.490;-122.288;2023-03-03T04:28:57;99206.16;;;6.12;100.00
29467;BME280;60968;37.490;-122.288;2023-03-03T04:31:58;99206.16;;;6.15;100.00
29467;BME280;60968;37.490;-122.288;2023-03-03T04:34:59;99197.53;;;6.16;100.00
29467;BME280;60968;37.490;-122.288;2023-03-03T04:38:00;99213.94;;;6.15;100.00
29467;BME280;60968;37.490;-122.288;2023-03-03T04:41:01;99206.16;;;6.15;100.00
29467;BME280;60968;37.490;-122.288;2023-03-03T04:44:02;99194.09;;;6.14;100.00
29467;BME280;60968;37.490;-122.288;2023-03-03T04:47:03;99194.06;;;6.11;100.00
29467;BME280;60968;37.490;-122.288;2023-03-03T04:50:04;99196.66;;;6.11;100.00
29467;BME280;60968;37.490;-122.288;2023-03-03T04:53:05;99189.75;;;6.13;100.00
29467;BME280;60968;37.490;-122.288;2023-03-03T04:56:06;99199.25;;;6.11;100.00
29467;BME280;60968;37.490;-122.288;2023-03-03T04:59:07;99207.00;;;6.11;100.00
29467;BME280;60968;37.490;-122.288;2023-03-03T05:02:08;99207.91;;;6.17;100.00
29467;BME280;60968;37.490;-122.288;2023-03-03T05:05:09;99218.28;;;6.19;100.00
29467;BME280;60968;37.490;-122.288;2023-03-03T05:08:10;99213.97;;;6.23;100.00
29467;BME280;60968;37.490;-122.288;2023-03-03T05:11:11;99211.38;;;6.24;100.00
29467;BME280;60968;37.490;-122.288;2023-03-03T05:14:12;99234.66;;;6.21;100.00
29467;BME280;60968;37.490;-122.288;2023-03-03T05:17:13;99232.97;;;6.26;100.00
29467;BME280;60968;37.490;-122.288;2023-03-03T05:20:14;99245.94;;;6.28;100.00
29467;BME280;60968;37.490;-122.288;2023-03-03T05:23:15;99239.00;;;6.27;100.00
29467;BME280;60968;37.490;-122.288;2023-03-03T05:26:16;99245.06;;;6.27;100.00
29467;BME280;60968;37.490;-122.288;2023-03-03T05:29:17;99233.84;;;6.30;100.00
29467;BME280;60968;37.490;-122.288;2023-03-03T05:32:18;99232.16;;;6.30;100.00
29467;BME280;60968;37.490;-122.288;2023-03-03T05:35:18;99240.78;;;6.32;100.00
29467;BME280;60968;37.490;-122.288;2023-03-03T05:38:20;99230.44;;;6.35;100.00
29467;BME280;60968;37.490;-122.288;2023-03-03T05:41:21;99233.94;;;6.41;100.00
29467;BME280;60968;37.490;-122.288;2023-03-03T05:44:21;99220.16;;;6.48;100.00
29467;BME280;60968;37.490;-122.288;2023-03-03T05:47:22;99230.56;;;6.54;100.00
29467;BME280;60968;37.490;-122.288;2023-03-03T05:50:23;99227.09;;;6.52;100.00
29467;BME280;60968;37.490;-122.288;2023-03-03T05:53:26;99212.41;;;6.49;100.00
29467;BME280;60968;37.490;-122.288;2023-03-03T05:56:27;99205.47;;;6.45;100.00
29467;BME280;60968;37.490;-122.288;2023-03-03T05:59:28;99196.00;;;6.43;100.00
29467;BME280;60968;37.490;-122.288;2023-03-03T06:02:29;99193.41;;;6.44;100.00
29467;BME280;60968;37.490;-122.288;2023-03-03T06:05:29;99194.25;;;6.42;100.00
29467;BME280;60968;37.490;-122.288;2023-03-03T06:08:30;99194.25;;;6.43;100.00
29467;BME280;60968;37.490;-122.288;2023-03-03T06:11:31;99190.81;;;6.44;100.00
29467;BME280;60968;37.490;-122.288;2023-03-03T06:14:34;99201.19;;;6.49;100.00
29467;BME280;60968;37.490;-122.288;2023-03-03T06:17:35;99210.69;;;6.48;100.00
29467;BME280;60968;37.490;-122.288;2023-03-03T06:20:35;99209.81;;;6.48;100.00
29467;BME280;60968;37.490;-122.288;2023-03-03T06:23:36;99196.88;;;6.51;100.00
29467;BME280;60968;37.490;-122.288;2023-03-03T06:26:38;99197.75;;;6.50;100.00
29467;BME280;60968;37.490;-122.288;2023-03-03T06:29:38;99191.69;;;6.52;100.00
29467;BME280;60968;37.490;-122.288;2023-03-03T06:32:39;99191.75;;;6.54;100.00
29467;BME280;60968;37.490;-122.288;2023-03-03T06:35:41;99190.00;;;6.51;100.00
29467;BME280;60968;37.490;-122.288;2023-03-03T06:38:42;99196.03;;;6.55;100.00
29467;BME280;60968;37.490;-122.288;2023-03-03T06:41:43;99187.41;;;6.50;100.00
29467;BME280;60968;37.490;-122.288;2023-03-03T06:44:44;99206.38;;;6.50;100.00
29467;BME280;60968;37.490;-122.288;2023-03-03T06:47:45;99196.88;;;6.48;100.00
29467;BME280;60968;37.490;-122.288;2023-03-03T06:50:46;99208.13;;;6.53;100.00
29467;BME280;60968;37.490;-122.288;2023-03-03T06:53:53;99215.88;;;6.50;100.00
29467;BME280;60968;37.490;-122.288;2023-03-03T06:56:58;99202.94;;;6.50;100.00
29467;BME280;60968;37.490;-122.288;2023-03-03T07:00:48;99189.16;;;6.54;100.00
29467;BME280;60968;37.490;-122.288;2023-03-03T07:03:39;99198.63;;;6.50;100.00
29467;BME280;60968;37.490;-122.288;2023-03-03T07:06:40;99186.50;;;6.48;100.00
29467;BME280;60968;37.490;-122.288;2023-03-03T07:09:44;99202.03;;;6.43;100.00
29467;BME280;60968;37.490;-122.288;2023-03-03T07:12:45;99202.88;;;6.42;100.00
29467;BME280;60968;37.490;-122.288;2023-03-03T07:15:47;99198.59;;;6.43;100.00
29467;BME280;60968;37.490;-122.288;2023-03-03T07:18:57;99201.13;;;6.40;100.00
29467;BME280;60968;37.490;-122.288;2023-03-03T07:25:33;99203.69;;;6.32;100.00
29467;BME280;60968;37.490;-122.288;2023-03-03T07:28:39;99203.63;;;6.26;100.00
29467;BME280;60968;37.490;-122.288;2023-03-03T07:31:41;99202.78;;;6.24;100.00
29467;BME280;60968;37.490;-122.288;2023-03-03T07:34:47;99207.09;;;6.23;100.00
29467;BME280;60968;37.490;-122.288;2023-03-03T07:37:48;99217.38;;;6.18;100.00
29467;BME280;60968;37.490;-122.288;2023-03-03T07:40:52;99235.47;;;6.14;100.00
29467;BME280;60968;37.490;-122.288;2023-03-03T07:43:57;99228.56;;;6.16;100.00
29467;BME280;60968;37.490;-122.288;2023-03-03T07:47:24;99238.09;;;6.20;100.00
29467;BME280;60968;37.490;-122.288;2023-03-03T07:50:26;99239.84;;;6.21;100.00
29467;BME280;60968;37.490;-122.288;2023-03-03T07:53:29;99246.75;;;6.22;100.00
29467;BME280;60968;37.490;-122.288;2023-03-03T07:56:34;99236.41;;;6.21;100.00
29467;BME280;60968;37.490;-122.288;2023-03-03T07:59:37;99245.00;;;6.20;100.00
29467;BME280;60968;37.490;-122.288;2023-03-03T08:05:47;99231.19;;;6.17;100.00
29467;BME280;60968;37.490;-122.288;2023-03-03T08:08:48;99230.31;;;6.15;100.00
29467;BME280;60968;37.490;-122.288;2023-03-03T08:12:11;99237.22;;;6.15;100.00
29467;BME280;60968;37.490;-122.288;2023-03-03T08:15:24;99235.47;;;6.11;100.00
29467;BME280;60968;37.490;-122.288;2023-03-03T08:18:33;99238.06;;;6.11;100.00
29467;BME280;60968;37.490;-122.288;2023-03-03T08:21:35;99229.38;;;6.06;100.00
29467;BME280;60968;37.490;-122.288;2023-03-03T08:28:34;99218.09;;;5.99;100.00
29467;BME280;60968;37.490;-122.288;2023-03-03T08:31:35;99236.16;;;5.94;100.00
29467;BME280;60968;37.490;-122.288;2023-03-03T08:34:35;99227.59;;;6.00;100.00
29467;BME280;60968;37.490;-122.288;2023-03-03T08:37:36;99229.38;;;6.04;100.00
29467;BME280;60968;37.490;-122.288;2023-03-03T08:40:37;99231.09;;;6.05;100.00
29467;BME280;60968;37.490;-122.288;2023-03-03T08:43:38;99227.63;;;6.05;100.00
29467;BME280;60968;37.490;-122.288;2023-03-03T08:46:39;99217.28;;;6.01;100.00
29467;BME280;60968;37.490;-122.288;2023-03-03T08:49:40;99219.84;;;6.01;100.00
29467;BME280;60968;37.490;-122.288;2023-03-03T08:52:42;99233.63;;;5.99;100.00
29467;BME280;60968;37.490;-122.288;2023-03-03T08:55:44;99240.53;;;6.00;100.00
29467;BME280;60968;37.490;-122.288;2023-03-03T08:58:46;99234.53;;;6.03;100.00
29467;BME280;60968;37.490;-122.288;2023-03-03T09:01:47;99241.44;;;6.02;100.00
29467;BME280;60968;37.490;-122.288;2023-03-03T09:04:48;99241.38;;;5.99;100.00
29467;BME280;60968;37.490;-122.288;2023-03-03T09:07:50;99243.06;;;5.95;100.00
29467;BME280;60968;37.490;-122.288;2023-03-03T09:10:51;99243.06;;;5.95;100.00
29467;BME280;60968;37.490;-122.288;2023-03-03T09:17:00;99233.63;;;5.97;100.00
29467;BME280;60968;37.490;-122.288;2023-03-03T09:23:37;99231.91;;;5.98;100.00
29467;BME280;60968;37.490;-122.288;2023-03-03T09:26:43;99229.25;;;5.93;100.00
29467;BME280;60968;37.490;-122.288;2023-03-03T09:29:45;99229.22;;;5.90;100.00
29467;BME280;60968;37.490;-122.288;2023-03-03T09:32:46;99224.03;;;5.89;100.00
29467;BME280;60968;37.490;-122.288;2023-03-03T09:35:53;99224.88;;;5.88;100.00
29467;BME280;60968;37.490;-122.288;2023-03-03T09:38:59;99227.44;;;5.84;100.00
29467;BME280;60968;37.490;-122.288;2023-03-03T09:48:27;99206.66;;;5.71;100.00
29467;BME280;60968;37.490;-122.288;2023-03-03T09:52:09;99194.50;;;5.60;100.00
29467;BME280;60968;37.490;-122.288;2023-03-03T09:55:24;99203.94;;;5.58;100.00
29467;BME280;60968;37.490;-122.288;2023-03-03T10:08:31;99159.53;;;6.04;100.00
29467;BME280;60968;37.490;-122.288;2023-03-03T10:21:59;99137.66;;;5.65;100.00
29467;BME280;60968;37.490;-122.288;2023-03-03T10:25:23;99146.22;;;5.59;100.00
29467;BME280;60968;37.490;-122.288;2023-03-03T10:28:47;99144.47;;;5.55;100.00
29467;BME280;60968;37.490;-122.288;2023-03-03T10:38:28;99131.28;;;5.26;100.00
29467;BME280;60968;37.490;-122.288;2023-03-03T10:48:46;99144.16;;;5.18;100.00
29467;BME280;60968;37.490;-122.288;2023-03-03T10:52:06;99138.94;;;5.13;100.00
29467;BME280;60968;37.490;-122.288;2023-03-03T11:08:37;99146.56;;;5.01;100.00
29467;BME280;60968;37.490;-122.288;2023-03-03T11:12:09;99138.84;;;5.03;100.00
29467;BME280;60968;37.490;-122.288;2023-03-03T11:15:44;99133.69;;;5.04;100.00
29467;BME280;60968;37.490;-122.288;2023-03-03T11:19:04;99124.28;;;5.11;100.00
29467;BME280;60968;37.490;-122.288;2023-03-03T11:22:16;99121.00;;;5.29;100.00
29467;BME280;60968;37.490;-122.288;2023-03-03T11:25:36;99110.72;;;5.37;100.00
29467;BME280;60968;37.490;-122.288;2023-03-03T11:28:55;99105.59;;;5.40;100.00
29467;BME280;60968;37.490;-122.288;2023-03-03T11:45:24;99119.97;;;5.10;100.00
29467;BME280;60968;37.490;-122.288;2023-03-03T11:58:26;99127.69;;;5.07;100.00
29467;BME280;60968;37.490;-122.288;2023-03-03T12:01:52;99128.53;;;5.04;100.00
29467;BME280;60968;37.490;-122.288;2023-03-03T12:05:13;99134.66;;;5.14;100.00
29467;BME280;60968;37.490;-122.288;2023-03-03T12:09:08;99139.16;;;5.35;100.00
29467;BME280;60968;37.490;-122.288;2023-03-03T12:12:22;99139.38;;;5.64;100.00
29467;BME280;60968;37.490;-122.288;2023-03-03T12:15:36;99132.66;;;5.87;100.00
29467;BME280;60968;37.490;-122.288;2023-03-03T12:22:14;99123.34;;;6.10;100.00
29467;BME280;60968;37.490;-122.288;2023-03-03T12:25:22;99124.22;;;6.15;100.00
29467;BME280;60968;37.490;-122.288;2023-03-03T12:28:51;99119.97;;;6.19;100.00
29467;BME280;60968;37.490;-122.288;2023-03-03T12:32:02;99119.97;;;6.21;100.00
29467;BME280;60968;37.490;-122.288;2023-03-03T12:48:15;99100.72;;;5.78;100.00
29467;BME280;60968;37.490;-122.288;2023-03-03T12:54:57;99096.34;;;5.70;100.00
29467;BME280;60968;37.490;-122.288;2023-03-03T13:07:55;99074.69;;;5.55;100.00
29467;BME280;60968;37.490;-122.288;2023-03-03T13:11:22;99062.63;;;5.54;100.00
29467;BME280;60968;37.490;-122.288;2023-03-03T13:14:47;99047.97;;;5.52;100.00
29467;BME280;60968;37.490;-122.288;2023-03-03T13:21:45;99047.91;;;5.45;100.00
29467;BME280;60968;37.490;-122.288;2023-03-03T13:28:36;99055.63;;;5.36;100.00
29467;BME280;60968;37.490;-122.288;2023-03-03T13:31:48;99056.44;;;5.33;100.00
29467;BME280;60968;37.490;-122.288;2023-03-03T13:35:14;99047.78;;;5.30;100.00
29467;BME280;60968;37.490;-122.288;2023-03-03T13:38:26;99054.69;;;5.26;100.00
29467;BME280;60968;37.490;-122.288;2023-03-03T13:41:44;99054.69;;;5.28;100.00
29467;BME280;60968;37.490;-122.288;2023-03-03T13:44:49;99058.94;;;5.21;100.00
29467;BME280;60968;37.490;-122.288;2023-03-03T14:01:51;99058.78;;;5.04;100.00
29467;BME280;60968;37.490;-122.288;2023-03-03T14:05:01;99069.09;;;5.03;100.00
29467;BME280;60968;37.490;-122.288;2023-03-03T14:18:03;99068.19;;;4.97;100.00
29467;BME280;60968;37.490;-122.288;2023-03-03T14:21:25;99066.41;;;4.89;100.00
29467;BME280;60968;37.490;-122.288;2023-03-03T14:24:27;99069.78;;;4.81;100.00
29467;BME280;60968;37.490;-122.288;2023-03-03T14:30:56;99078.34;;;4.79;100.00
29467;BME280;60968;37.490;-122.288;2023-03-03T14:34:25;99080.06;;;4.77;100.00
29467;BME280;60968;37.490;-122.288;2023-03-03T14:37:41;99088.56;;;4.70;100.00
29467;BME280;60968;37.490;-122.288;2023-03-03T14:40:48;99092.00;;;4.67;100.00
29467;BME280;60968;37.490;-122.288;2023-03-03T14:43:59;99087.63;;;4.61;100.00
29467;BME280;60968;37.490;-122.288;2023-03-03T14:47:20;99089.31;;;4.59;100.00
29467;BME280;60968;37.490;-122.288;2023-03-03T14:50:40;99099.59;;;4.55;100.00
29467;BME280;60968;37.490;-122.288;2023-03-03T14:53:46;99099.63;;;4.59;100.00
29467;BME280;60968;37.490;-122.288;2023-03-03T14:57:01;99090.25;;;4.64;100.00
29467;BME280;60968;37.490;-122.288;2023-03-03T15:06:11;99080.22;;;4.94;100.00
29467;BME280;60968;37.490;-122.288;2023-03-03T15:12:40;99100.38;;;5.35;100.00
29467;BME280;60968;37.490;-122.288;2023-03-03T15:22:17;99104.97;;;5.72;100.00
29467;BME280;60968;37.490;-122.288;2023-03-03T15:28:53;99114.69;;;6.04;100.00
29467;BME280;60968;37.490;-122.288;2023-03-03T15:35:50;99121.72;;;6.28;100.00
29467;BME280;60968;37.490;-122.288;2023-03-03T15:42:04;99129.50;;;6.34;100.00
29467;BME280;60968;37.490;-122.288;2023-03-03T15:45:55;99134.75;;;6.48;100.00
29467;BME280;60968;37.490;-122.288;2023-03-03T16:05:53;99141.03;;;7.70;100.00
29467;BME280;60968;37.490;-122.288;2023-03-03T16:09:24;99139.28;;;7.91;100.00
29467;BME280;60968;37.490;-122.288;2023-03-03T16:19:52;99149.69;;;7.69;100.00
29467;BME280;60968;37.490;-122.288;2023-03-03T16:23:26;99145.34;;;7.70;100.00
29467;BME280;60968;37.490;-122.288;2023-03-03T16:40:10;99160.03;;;7.94;100.00
29467;BME280;60968;37.490;-122.288;2023-03-03T16:47:42;99161.75;;;8.07;100.00
29467;BME280;60968;37.490;-122.288;2023-03-03T16:54:28;99177.31;;;8.23;100.00
29467;BME280;60968;37.490;-122.288;2023-03-03T17:04:46;99173.84;;;8.26;100.00
29467;BME280;60968;37.490;-122.288;2023-03-03T17:07:53;99173.81;;;8.24;100.00
29467;BME280;60968;37.490;-122.288;2023-03-03T17:31:35;99104.09;;;9.28;100.00
29467;BME280;60968;37.490;-122.288;2023-03-03T17:44:44;99100.09;;;8.74;100.00
29467;BME280;60968;37.490;-122.288;2023-03-03T17:48:16;99097.47;;;8.81;100.00
29467;BME280;60968;37.490;-122.288;2023-03-03T18:01:33;99103.34;;;9.12;100.00
29467;BME280;60968;37.490;-122.288;2023-03-03T18:18:37;99089.25;;;10.31;95.20
29467;BME280;60968;37.490;-122.288;2023-03-03T18:25:18;99086.59;;;10.36;90.93
29467;BME280;60968;37.490;-122.288;2023-03-03T18:28:22;99093.75;;;10.87;87.06
29467;BME280;60968;37.490;-122.288;2023-03-03T18:31:27;99084.00;;;11.03;85.45
29467;BME280;60968;37.490;-122.288;2023-03-03T18:34:38;99078.28;;;10.74;88.06
29467;BME280;60968;37.490;-122.288;2023-03-03T18:37:42;99069.38;;;10.91;85.20
29467;BME280;60968;37.490;-122.288;2023-03-03T18:44:30;99054.28;;;11.64;84.61
29467;BME280;60968;37.490;-122.288;2023-03-03T18:51:07;99059.59;;;11.58;84.14
29467;BME280;60968;37.490;-122.288;2023-03-03T18:57:16;99036.81;;;11.68;82.58
29467;BME280;60968;37.490;-122.288;2023-03-03T19:00:24;99028.31;;;11.57;81.49
29467;BME280;60968;37.490;-122.288;2023-03-03T19:16:30;99021.59;;;11.43;81.80
29467;BME280;60968;37.490;-122.288;2023-03-03T19:19:32;99004.75;;;11.61;79.16
29467;BME280;60968;37.490;-122.288;2023-03-03T19:22:49;98996.69;;;11.74;80.17
29467;BME280;60968;37.490;-122.288;2023-03-03T19:29:51;98987.22;;;12.13;74.45
29467;BME280;60968;37.490;-122.288;2023-03-03T19:36:19;98974.06;;;12.20;76.73
29467;BME280;60968;37.490;-122.288;2023-03-03T19:39:46;98958.38;;;12.20;76.84
29467;BME280;60968;37.490;-122.288;2023-03-03T19:46:30;98946.75;;;12.33;77.41
29467;BME280;60968;37.490;-122.288;2023-03-03T19:49:44;98941.72;;;12.25;76.14
29467;BME280;60968;37.490;-122.288;2023-03-03T19:56:40;98924.84;;;12.76;72.74
29467;BME280;60968;37.490;-122.288;2023-03-03T19:59:54;98921.38;;;12.76;75.24
29467;BME280;60968;37.490;-122.288;2023-03-03T20:13:32;98938.28;;;11.79;79.23
29467;BME280;60968;37.490;-122.288;2023-03-03T20:16:41;98929.88;;;11.65;78.71
29467;BME280;60968;37.490;-122.288;2023-03-03T20:33:09;98907.38;;;12.42;78.15
29467;BME280;60968;37.490;-122.288;2023-03-03T20:36:27;98903.03;;;12.41;78.12
29467;BME280;60968;37.490;-122.288;2023-03-03T20:49:48;98868.56;;;12.96;75.14
29467;BME280;60968;37.490;-122.288;2023-03-03T20:56:40;98869.94;;;12.40;73.88
29467;BME280;60968;37.490;-122.288;2023-03-03T21:06:22;98853.47;;;11.99;76.67
29467;BME280;60968;37.490;-122.288;2023-03-03T21:09:37;98858.97;;;12.26;77.36
29467;BME280;60968;37.490;-122.288;2023-03-03T21:12:38;98861.69;;;12.59;75.18
29467;BME280;60968;37.490;-122.288;2023-03-03T21:15:39;98857.88;;;12.34;74.96
29467;BME280;60968;37.490;-122.288;2023-03-03T21:18:40;98857.94;;;12.33;76.49
29467;BME280;60968;37.490;-122.288;2023-03-03T21:21:42;98848.84;;;12.12;76.03
29467;BME280;60968;37.490;-122.288;2023-03-03T21:24:57;98841.97;;;12.08;75.49
29467;BME280;60968;37.490;-122.288;2023-03-03T21:28:23;98840.19;;;12.10;77.78
29467;BME280;60968;37.490;-122.288;2023-03-03T21:31:27;98832.06;;;11.83;78.28
29467;BME280;60968;37.490;-122.288;2023-03-03T21:34:40;98822.59;;;11.77;80.31
29467;BME280;60968;37.490;-122.288;2023-03-03T21:37:55;98811.66;;;11.60;80.69
29467;BME280;60968;37.490;-122.288;2023-03-03T21:41:01;98805.16;;;11.79;80.24
29467;BME280;60968;37.490;-122.288;2023-03-03T21:44:55;98801.06;;;12.08;79.74
29467;BME280;60968;37.490;-122.288;2023-03-03T21:47:50;98802.97;;;12.38;77.70
29467;BME280;60968;37.490;-122.288;2023-03-03T21:50:52;98796.13;;;12.32;78.29
29467;BME280;60968;37.490;-122.288;2023-03-03T21:53:53;98782.13;;;12.34;77.86
29467;BME280;60968;37.490;-122.288;2023-03-03T21:56:55;98779.41;;;12.39;79.89
29467;BME280;60968;37.490;-122.288;2023-03-03T21:59:56;98769.75;;;12.41;78.85
29467;BME280;60968;37.490;-122.288;2023-03-03T22:03:00;98764.78;;;11.96;78.08
29467;BME280;60968;37.490;-122.288;2023-03-03T22:06:01;98778.06;;;12.23;80.69
29467;BME280;60968;37.490;-122.288;2023-03-03T22:09:03;98773.78;;;12.55;78.78
29467;BME280;60968;37.490;-122.288;2023-03-03T22:12:05;98772.00;;;12.57;78.80